KAGS

Augusta Regional at Bush Field Airport

Augusta, Georgia, USA
KAGS 182320Z 1900/1924 VRB03KT P6SM FEW250 FM191800 08003KT P6SM OVC045
Issued Valid From Valid To
Dec-18 @ 23:20 UTC
(30 minutes ago)
Dec-19 @ 00:00 UTC
(in 10 minutes)
Dec-20 @ 00:00 UTC
(in 24 hours)
Dec-19 @ 00:00 to Dec-19 @ 18:00
KAGS 182320Z 1900/1924 VRB03KT P6SM FEW250
Wind Visibility Clouds
Variable at 3 knots Greater than 6 miles
  • Few at 25,000' AGL
From Dec-19 @ 18:00 to Dec-20 @ 00:00
FM191800 08003KT P6SM OVC045
Wind Visibility Clouds
80° at 3 knots Greater than 6 miles
  • Overcast at 4,500' AGL
KAGS 182320Z 1900/1924 VRB03KT P6SM FEW250 FM191800 08003KT P6SM OVC045
Issued Dec-18 @ 23:20 UTC
(30 minutes ago)
Valid From Dec-19 @ 00:00 UTC
(in 10 minutes)
Valid To Dec-20 @ 00:00 UTC
(in 24 hours)
Dec-19 @ 00:00 - Dec-19 @ 18:00
Wind Visibility
Variable at 3 knots Greater than 6 miles
Clouds
  • Few at 25,000' AGL
From Dec-19 @ 18:00 - Dec-20 @ 00:00
Wind Visibility
80° at 3 knots Greater than 6 miles
Clouds
  • Overcast at 4,500' AGL